Time;durP1;ratioP1;P1;durP2;ratioP2;P2;SDS_P1;SDS_P2;PMS_P1;PMS_P2;Temp;Humidity;BMP_temperature;BMP_pressure;BME280_temperature;BME280_humidity;BME280_pressure;Samples;Min_cycle;Max_cycle;Signal;HPM_P1;HPM_P2
2023/10/24 00:01:56;;;;;;;13.85;13.35;;;;;;;-141.02;100.00;41534.59;5112252;28;20189;-67
2023/10/24 00:04:23;;;;;;;14.20;13.70;;;;;;;-141.02;100.00;41515.41;5112379;28;20224;-66
2023/10/24 00:06:50;;;;;;;14.23;13.73;;;;;;;-141.02;100.00;41503.91;5112325;28;20239;-67
2023/10/24 00:09:19;;;;;;;13.90;13.40;;;;;;;-141.02;100.00;41507.72;5112531;28;20195;-66
2023/10/24 00:11:46;;;;;;;13.90;13.40;;;;;;;-141.02;100.00;41501.97;5112527;28;20196;-68
2023/10/24 00:14:13;;;;;;;13.68;13.27;;;;;;;-141.02;100.00;41500.06;5112616;28;20288;-67
2023/10/24 00:16:43;;;;;;;13.32;12.93;;;;;;;-141.02;100.00;41438.66;5112170;28;20229;-67
2023/10/24 00:19:10;;;;;;;13.05;12.65;;;;;;;-141.02;100.00;41415.63;5112090;28;20189;-67
2023/10/24 00:21:37;;;;;;;13.40;13.00;;;;;;;-141.02;100.00;41465.50;5112472;28;20193;-67
2023/10/24 00:24:05;;;;;;;13.98;13.50;;;;;;;-141.02;100.00;41473.19;5112462;28;20275;-68
2023/10/24 00:26:34;;;;;;;13.32;12.93;;;;;;;-141.02;100.00;41469.34;5112485;28;20244;-66
2023/10/24 00:29:01;;;;;;;12.95;12.55;;;;;;;-141.02;100.00;41446.31;5112448;28;20200;-67
2023/10/24 00:31:28;;;;;;;12.70;12.30;;;;;;;-141.02;100.00;41427.13;5112050;28;20197;-66
2023/10/24 00:33:57;;;;;;;13.13;12.73;;;;;;;-141.02;100.00;41338.88;5115940;28;20272;-67
2023/10/24 00:36:24;;;;;;;12.90;12.50;;;;;;;-141.02;100.00;41288.97;5115883;28;20228;-66
2023/10/24 00:38:51;;;;;;;12.60;12.20;;;;;;;-141.02;100.00;41287.06;5115902;28;20189;-66
2023/10/24 00:41:19;;;;;;;12.50;12.10;;;;;;;-141.02;100.00;41016.50;5115944;28;20679;-67
2023/10/24 00:43:47;;;;;;;12.80;12.40;;;;;;;-141.02;100.00;41223.72;5116180;28;20197;-66
2023/10/24 00:46:15;;;;;;;12.75;12.35;;;;;;;-141.02;100.00;41200.72;5116116;28;20193;-66
2023/10/24 00:48:43;;;;;;;13.00;12.60;;;;;;;-141.02;100.00;41189.19;5116006;28;20316;-67
2023/10/24 00:51:12;;;;;;;12.77;12.38;;;;;;;-141.02;100.00;41156.56;5115727;27;20201;-67
2023/10/24 00:53:42;;;;;;;12.30;11.90;;;;;;;-141.02;100.00;41120.13;5115667;28;20225;-66
2023/10/24 00:56:14;;;;;;;12.60;12.20;;;;;;;-141.02;100.00;41108.59;5115846;28;20224;-66
2023/10/24 00:58:42;;;;;;;12.30;11.90;;;;;;;-141.02;100.00;41087.50;5115540;28;20239;-66
2023/10/24 01:01:13;;;;;;;10.73;10.43;;;;;;;-141.02;100.00;40964.69;5115427;28;20284;-66
2023/10/24 01:03:41;;;;;;;11.13;10.82;;;;;;;-141.02;100.00;40828.47;5115542;28;20254;-66
2023/10/24 01:06:09;;;;;;;11.10;10.80;;;;;;;-141.02;100.00;40815.03;5115384;28;20193;-66
2023/10/24 01:08:37;;;;;;;11.30;11.00;;;;;;;-141.02;100.00;40863.00;5115308;28;20604;-66
2023/10/24 01:11:05;;;;;;;11.30;11.00;;;;;;;-141.02;100.00;40751.72;5115592;28;20276;-67
2023/10/24 01:13:33;;;;;;;11.20;10.90;;;;;;;-141.02;100.00;40721.03;5115313;28;20284;-66
2023/10/24 01:16:00;;;;;;;11.80;11.50;;;;;;;-141.02;100.00;40780.50;5115438;28;20621;-66
2023/10/24 01:18:28;;;;;;;12.40;12.00;;;;;;;-141.02;100.00;40759.41;5115527;28;20287;-66
2023/10/24 01:20:55;;;;;;;11.93;11.52;;;;;;;-141.02;100.00;40692.25;5115084;28;20555;-65
2023/10/24 01:23:24;;;;;;;11.85;11.45;;;;;;;-141.02;100.00;40646.22;5115052;28;20228;-66
2023/10/24 01:25:52;;;;;;;11.70;11.40;;;;;;;-141.02;100.00;40607.84;5115388;28;20223;-66
2023/10/24 01:28:22;;;;;;;11.50;11.20;;;;;;;-141.02;100.00;40563.72;5115232;28;20272;-66
2023/10/24 01:30:48;;;;;;;11.50;11.20;;;;;;;-141.02;100.00;40552.22;5114880;28;20620;-66
2023/10/24 01:33:15;;;;;;;11.40;11.10;;;;;;;-141.02;100.00;40542.63;5114869;28;20307;-66
2023/10/24 01:35:42;;;;;;;11.45;11.15;;;;;;;-141.02;100.00;40506.16;5115052;28;20200;-65
2023/10/24 01:38:09;;;;;;;11.40;11.10;;;;;;;-141.02;100.00;40529.19;5114833;28;20193;-65
2023/10/24 01:40:38;;;;;;;11.20;10.90;;;;;;;-141.02;100.00;40498.50;5114989;28;20283;-66
2023/10/24 01:43:05;;;;;;;11.27;10.98;;;;;;;-141.02;100.00;40475.47;5114798;28;20234;-66
2023/10/24 01:45:32;;;;;;;12.07;11.68;;;;;;;-141.02;100.00;40467.81;5114928;28;20236;-66
2023/10/24 01:47:59;;;;;;;11.55;11.25;;;;;;;-141.02;100.00;40454.38;5114875;28;20689;-66
2023/10/24 01:50:26;;;;;;;11.20;10.90;;;;;;;-141.02;100.00;40446.69;5114930;28;20225;-66
2023/10/24 01:52:54;;;;;;;11.30;11.00;;;;;;;-141.02;100.00;40425.59;5114508;28;20280;-66
2023/10/24 01:55:22;;;;;;;11.50;11.20;;;;;;;-141.02;100.00;40440.94;5114653;28;20201;-66
2023/10/24 01:57:51;;;;;;;11.40;11.10;;;;;;;-141.02;100.00;40437.09;5114156;28;20232;-66
2023/10/24 02:00:19;;;;;;;11.05;10.75;;;;;;;-141.02;100.00;40406.41;5114690;28;20185;-66
2023/10/24 02:02:46;;;;;;;11.30;11.00;;;;;;;-141.02;100.00;40364.22;5114618;28;20265;-66
2023/10/24 02:05:14;;;;;;;11.30;11.00;;;;;;;-141.02;100.00;40358.47;5114600;28;20697;-67
2023/10/24 02:07:41;;;;;;;11.25;10.95;;;;;;;-141.02;100.00;40333.50;5114253;28;20197;-66
2023/10/24 02:10:09;;;;;;;10.93;10.63;;;;;;;-141.02;100.00;40371.88;5114152;28;20287;-66
2023/10/24 02:12:36;;;;;;;11.00;10.70;;;;;;;-141.02;100.00;40379.56;5114488;28;20280;-68
2023/10/24 02:15:09;;;;;;;10.70;10.40;;;;;;;-141.02;100.00;40402.56;5114424;27;20197;-66
2023/10/24 02:17:48;;;;;;;10.40;10.10;;;;;;;-141.02;100.00;40404.50;5114612;28;20274;-65
2023/10/24 02:20:15;;;;;;;11.18;10.88;;;;;;;-141.02;100.00;40416.00;5114185;28;20229;-65
2023/10/24 02:22:42;;;;;;;11.68;11.38;;;;;;;-141.02;100.00;40423.69;5114124;28;20662;-66
2023/10/24 02:25:09;;;;;;;11.50;11.20;;;;;;;-141.02;100.00;40414.09;5113851;28;20659;-66
2023/10/24 02:27:38;;;;;;;11.05;10.75;;;;;;;-141.02;100.00;40408.34;5114186;28;20288;-65
2023/10/24 02:30:08;;;;;;;11.27;10.98;;;;;;;-141.02;100.00;40410.25;5113784;28;20193;-65
2023/10/24 02:32:35;;;;;;;11.00;10.70;;;;;;;-141.02;100.00;40414.09;5113954;28;20193;-66
2023/10/24 02:35:01;;;;;;;10.90;10.60;;;;;;;-141.02;100.00;40381.47;5113908;28;20284;-66
2023/10/24 02:37:28;;;;;;;11.43;11.13;;;;;;;-141.02;100.00;40381.47;5113869;28;20228;-66
2023/10/24 02:39:55;;;;;;;10.68;10.38;;;;;;;-141.02;100.00;40369.97;5113592;28;20199;-66
2023/10/24 02:42:22;;;;;;;11.00;10.70;;;;;;;-141.02;100.00;40406.41;5113559;28;20229;-66
2023/10/24 02:44:50;;;;;;;10.90;10.60;;;;;;;-141.02;100.00;40406.41;5113457;28;20288;-66
2023/10/24 02:47:18;;;;;;;11.23;10.93;;;;;;;-141.02;100.00;40433.28;5113787;28;20189;-66
2023/10/24 02:49:45;;;;;;;11.10;10.80;;;;;;;-141.02;100.00;40431.34;5113366;28;20189;-67
2023/10/24 02:52:12;;;;;;;11.40;11.10;;;;;;;-141.02;100.00;40383.38;5113649;28;20201;-66
2023/10/24 02:54:39;;;;;;;11.15;10.85;;;;;;;-141.02;100.00;40345.03;5112883;28;20200;-66
2023/10/24 02:57:06;;;;;;;11.25;10.95;;;;;;;-141.02;100.00;40327.75;5113426;28;20228;-66
2023/10/24 02:59:36;;;;;;;10.77;10.48;;;;;;;-141.02;100.00;40337.34;5113336;28;20679;-65
2023/10/24 03:02:03;;;;;;;10.73;10.43;;;;;;;-141.02;100.00;40346.94;5113154;28;20200;-66
2023/10/24 03:04:32;;;;;;;10.35;10.05;;;;;;;-141.02;100.00;40345.03;5113436;28;20250;-66
2023/10/24 03:06:59;;;;;;;10.90;10.60;;;;;;;-141.02;100.00;40306.66;5113085;28;20236;-66
2023/10/24 03:09:26;;;;;;;11.05;10.75;;;;;;;-141.02;100.00;40322.00;5113426;28;20694;-66
2023/10/24 03:11:53;;;;;;;10.90;10.60;;;;;;;-141.02;100.00;40275.97;5113013;28;20232;-66
2023/10/24 03:14:20;;;;;;;10.80;10.50;;;;;;;-141.02;100.00;40222.25;5112964;28;20197;-66
2023/10/24 03:16:48;;;;;;;10.50;10.20;;;;;;;-141.02;100.00;40181.97;5112904;28;20260;-66
2023/10/24 03:19:15;;;;;;;9.90;9.60;;;;;;;-141.02;100.00;40183.88;5112801;28;20570;-66
2023/10/24 03:21:44;;;;;;;10.63;10.32;;;;;;;-141.02;100.00;40164.72;5112879;28;20667;-68
2023/10/24 03:24:13;;;;;;;10.10;9.80;;;;;;;-141.02;100.00;40168.53;5113082;28;20321;-66
2023/10/24 03:26:40;;;;;;;10.20;9.90;;;;;;;-141.02;100.00;40160.88;5113123;28;20197;-66
2023/10/24 03:29:07;;;;;;;9.90;9.60;;;;;;;-141.02;100.00;40141.69;5113348;28;20209;-66
2023/10/24 03:31:34;;;;;;;9.80;9.50;;;;;;;-141.02;100.00;40111.00;5113083;28;20197;-66
2023/10/24 03:34:01;;;;;;;9.95;9.65;;;;;;;-141.02;100.00;40101.41;5112997;28;20192;-66
2023/10/24 03:36:28;;;;;;;10.10;9.80;;;;;;;-141.02;100.00;40082.22;5112552;28;20228;-66
2023/10/24 03:38:57;;;;;;;10.18;9.88;;;;;;;-141.02;100.00;40072.63;5112618;28;20189;-66
2023/10/24 03:41:24;;;;;;;9.70;9.40;;;;;;;-141.02;100.00;40097.56;5113354;28;20199;-66
2023/10/24 03:43:51;;;;;;;9.93;9.63;;;;;;;-141.02;100.00;40053.44;5112581;28;20189;-66
2023/10/24 03:46:18;;;;;;;10.32;10.02;;;;;;;-141.02;100.00;40057.28;5112553;28;20224;-66
2023/10/24 03:48:46;;;;;;;9.98;9.68;;;;;;;-141.02;100.00;40028.50;5112500;28;20246;-68
2023/10/24 03:51:13;;;;;;;9.85;9.55;;;;;;;-141.02;100.00;40007.41;5113095;28;20275;-66
2023/10/24 03:53:39;;;;;;;10.23;9.93;;;;;;;-141.02;100.00;40018.94;5112418;28;20649;-66
2023/10/24 03:56:08;;;;;;;9.55;9.27;;;;;;;-141.02;100.00;39930.69;5112721;28;20193;-66
2023/10/24 03:58:35;;;;;;;17.17;16.67;;;;;;;-141.02;100.00;39913.44;5112242;28;20330;-66
2023/10/24 04:01:06;;;;;;;17.88;17.27;;;;;;;-141.02;100.00;39877.00;5112408;28;20284;-66
2023/10/24 04:03:34;;;;;;;19.77;19.17;;;;;;;-141.02;100.00;39896.16;5112753;28;20288;-65
2023/10/24 04:06:02;;;;;;;19.55;18.95;;;;;;;-141.02;100.00;39882.75;5112333;28;20200;-65
2023/10/24 04:08:29;;;;;;;18.90;18.30;;;;;;;-141.02;100.00;39882.75;5115656;28;20200;-67
2023/10/24 04:10:56;;;;;;;20.17;19.48;;;;;;;-141.02;100.00;39884.66;5116701;28;20189;-66
2023/10/24 04:13:24;;;;;;;9.52;9.23;;;;;;;-141.02;100.00;39865.47;5117107;28;20201;-66
2023/10/24 04:15:58;;;;;;;9.50;9.20;;;;;;;-141.02;100.00;39819.44;5117068;28;20197;-69
2023/10/24 04:18:25;;;;;;;10.18;9.88;;;;;;;-141.02;100.00;39769.56;5116759;28;20248;-68
2023/10/24 04:20:52;;;;;;;9.93;9.63;;;;;;;-141.02;100.00;39742.72;5116383;28;20651;-66
2023/10/24 04:23:19;;;;;;;9.93;9.63;;;;;;;-141.02;100.00;39713.97;5116537;28;20199;-66
2023/10/24 04:25:45;;;;;;;9.98;9.68;;;;;;;-141.02;100.00;39681.34;5116569;28;20193;-67
2023/10/24 04:28:13;;;;;;;9.45;9.18;;;;;;;-141.02;100.00;39648.75;5116200;28;20197;-65
2023/10/24 04:30:42;;;;;;;9.70;9.40;;;;;;;-141.02;100.00;39587.38;5116527;28;20199;-66
2023/10/24 04:33:09;;;;;;;9.18;8.98;;;;;;;-141.02;100.00;39485.72;5116093;28;20629;-66
2023/10/24 04:35:41;;;;;;;9.05;8.85;;;;;;;-141.02;100.00;39570.13;5116322;27;20199;-70
2023/10/24 04:38:08;;;;;;;9.60;9.30;;;;;;;-141.02;100.00;39704.38;5115972;28;20733;-66
2023/10/24 04:40:37;;;;;;;9.60;9.30;;;;;;;-141.02;100.00;39769.56;5116256;28;20204;-65
2023/10/24 04:43:04;;;;;;;9.60;9.30;;;;;;;-141.02;100.00;39723.53;5116220;28;20222;-69
2023/10/24 04:45:31;;;;;;;9.80;9.50;;;;;;;-141.02;100.00;39748.47;5116790;28;20197;-68
2023/10/24 04:48:00;;;;;;;10.27;9.98;;;;;;;-141.02;100.00;39727.38;5115800;28;20193;-68
2023/10/24 04:50:27;;;;;;;9.82;9.52;;;;;;;-141.02;100.00;39783.00;5116336;28;20193;-66
2023/10/24 04:52:54;;;;;;;9.52;9.23;;;;;;;-141.02;100.00;39781.09;5116273;28;20574;-66
2023/10/24 04:55:21;;;;;;;9.57;9.27;;;;;;;-141.02;100.00;39813.69;5115964;28;20280;-65
2023/10/24 04:57:48;;;;;;;9.70;9.40;;;;;;;-141.02;100.00;39800.25;5115740;28;20228;-66
2023/10/24 05:00:16;;;;;;;9.07;8.88;;;;;;;-141.02;100.00;39840.53;5115843;28;20190;-66
2023/10/24 05:02:45;;;;;;;9.30;9.10;;;;;;;-141.02;100.00;39888.50;5115790;28;20197;-66
2023/10/24 05:05:13;;;;;;;9.80;9.50;;;;;;;-141.02;100.00;39928.78;5115491;28;20228;-65
2023/10/24 05:07:43;;;;;;;9.35;9.10;;;;;;;-141.02;100.00;39934.53;5115776;28;20189;-66
2023/10/24 05:10:11;;;;;;;9.38;9.13;;;;;;;-141.02;100.00;39926.84;5115388;28;20204;-66
2023/10/24 05:12:38;;;;;;;9.00;8.80;;;;;;;-141.02;100.00;40007.41;5115704;27;20246;-67
2023/10/24 05:15:06;;;;;;;9.18;8.98;;;;;;;-141.02;100.00;39982.47;5115557;28;20194;-66
2023/10/24 05:17:33;;;;;;;9.60;9.30;;;;;;;-141.02;100.00;39995.91;5115311;28;20332;-66
2023/10/24 05:20:02;;;;;;;9.50;9.20;;;;;;;-141.02;100.00;39970.97;5115130;28;20284;-66
2023/10/24 05:22:31;;;;;;;9.50;9.20;;;;;;;-141.02;100.00;39936.44;5115446;28;20197;-66
2023/10/24 05:24:58;;;;;;;9.60;9.30;;;;;;;-141.02;100.00;39984.41;5115156;28;20197;-66
2023/10/24 05:27:26;;;;;;;9.80;9.50;;;;;;;-141.02;100.00;40049.63;5115025;28;20596;-66
2023/10/24 05:29:53;;;;;;;9.30;9.05;;;;;;;-141.02;100.00;40059.22;5115035;28;20193;-66
2023/10/24 05:32:20;;;;;;;9.80;9.50;;;;;;;-141.02;100.00;40099.50;5115221;28;20200;-70
2023/10/24 05:34:47;;;;;;;9.88;9.57;;;;;;;-141.02;100.00;40155.13;5115222;28;20199;-66
2023/10/24 05:37:14;;;;;;;10.00;9.70;;;;;;;-141.02;100.00;40170.47;5115055;28;20228;-67
2023/10/24 05:39:42;;;;;;;10.13;9.82;;;;;;;-141.02;100.00;40195.41;5114852;28;20193;-66
2023/10/24 05:42:09;;;;;;;10.10;9.80;;;;;;;-141.02;100.00;40193.47;5115148;28;20216;-66
2023/10/24 05:44:36;;;;;;;10.38;10.07;;;;;;;-141.02;100.00;40260.63;5114990;28;20276;-66
2023/10/24 05:47:03;;;;;;;10.52;10.23;;;;;;;-141.02;100.00;40277.88;5114994;28;20197;-69
2023/10/24 05:49:30;;;;;;;11.00;10.70;;;;;;;-141.02;100.00;40285.56;5114619;28;20189;-68
2023/10/24 05:51:57;;;;;;;11.30;11.00;;;;;;;-141.02;100.00;40272.13;5114535;28;20204;-66
2023/10/24 05:54:24;;;;;;;10.70;10.40;;;;;;;-141.02;100.00;40410.25;5114613;28;20201;-68
2023/10/24 05:56:52;;;;;;;11.80;11.50;;;;;;;-141.02;100.00;40448.63;5115533;28;20192;-69
2023/10/24 05:59:19;;;;;;;12.10;11.70;;;;;;;-141.02;100.00;40471.63;5114214;28;20240;-67
2023/10/24 06:01:46;;;;;;;11.70;11.40;;;;;;;-141.02;100.00;40511.94;5115011;28;20196;-70
2023/10/24 06:04:13;;;;;;;11.68;11.38;;;;;;;-141.02;100.00;40534.94;5114557;28;20284;-66
2023/10/24 06:06:39;;;;;;;12.27;11.88;;;;;;;-141.02;100.00;40567.56;5114289;28;20236;-66
2023/10/24 06:09:07;;;;;;;12.50;12.10;;;;;;;-141.02;100.00;40638.53;5114236;28;20284;-66
2023/10/24 06:11:34;;;;;;;12.40;12.00;;;;;;;-141.02;100.00;40663.47;5114536;28;20620;-66
2023/10/24 06:14:02;;;;;;;13.20;12.80;;;;;;;-141.02;100.00;40728.72;5114687;28;20193;-67
2023/10/24 06:16:29;;;;;;;13.60;13.10;;;;;;;-141.02;100.00;40772.84;5114206;28;20197;-68
2023/10/24 06:18:56;;;;;;;13.18;12.77;;;;;;;-141.02;100.00;40797.78;5114243;28;20264;-68
2023/10/24 06:21:23;;;;;;;13.07;12.68;;;;;;;-141.02;100.00;40782.44;5114049;28;20712;-66
2023/10/24 06:23:50;;;;;;;14.20;13.73;;;;;;;-141.02;100.00;40774.75;5114286;28;20225;-66
2023/10/24 06:26:18;;;;;;;13.18;12.77;;;;;;;-141.02;100.00;40784.34;5114435;28;20253;-67
2023/10/24 06:28:45;;;;;;;12.93;12.52;;;;;;;-141.02;100.00;40824.63;5113881;28;20193;-66
2023/10/24 06:31:14;;;;;;;12.93;12.52;;;;;;;-141.02;100.00;40863.00;5113415;28;20197;-67
2023/10/24 06:33:41;;;;;;;13.32;12.93;;;;;;;-141.02;100.00;40847.66;5113773;28;20189;-67
2023/10/24 06:36:09;;;;;;;14.30;13.80;;;;;;;-141.02;100.00;40882.19;5113737;28;20197;-68
2023/10/24 06:38:36;;;;;;;13.60;13.20;;;;;;;-141.02;100.00;40920.56;5113811;28;20229;-69
2023/10/24 06:41:03;;;;;;;14.70;14.20;;;;;;;-141.02;100.00;40981.97;5113559;28;20250;-66
2023/10/24 06:43:30;;;;;;;14.68;14.18;;;;;;;-141.02;100.00;41029.94;5113804;28;20228;-66
2023/10/24 06:45:57;;;;;;;15.43;14.85;;;;;;;-141.02;100.00;41039.53;5113486;28;20289;-67
2023/10/24 06:48:25;;;;;;;15.30;14.80;;;;;;;-141.02;100.00;41062.56;5113460;28;20722;-66
2023/10/24 06:50:52;;;;;;;14.35;13.85;;;;;;;-141.02;100.00;41091.34;5113368;28;20730;-66
2023/10/24 06:53:19;;;;;;;14.70;14.20;;;;;;;-141.02;100.00;41129.72;5113667;28;20197;-66
2023/10/24 06:55:46;;;;;;;14.80;14.30;;;;;;;-141.02;100.00;41116.28;5113536;28;20201;-67
2023/10/24 06:58:13;;;;;;;15.52;14.93;;;;;;;-141.02;100.00;41141.22;5113168;28;20229;-67
2023/10/24 07:00:40;;;;;;;15.07;14.57;;;;;;;-141.02;100.00;41123.97;5113989;28;20201;-66
2023/10/24 07:03:08;;;;;;;15.10;14.50;;;;;;;-141.02;100.00;41181.53;5113544;28;20356;-67
2023/10/24 07:05:36;;;;;;;15.55;14.95;;;;;;;-141.02;100.00;41168.09;5113133;28;20196;-66
2023/10/24 07:08:03;;;;;;;15.40;14.80;;;;;;;-141.02;100.00;41181.53;5113367;28;20246;-66
2023/10/24 07:10:33;;;;;;;15.10;14.60;;;;;;;-141.02;100.00;41177.69;5113096;28;20583;-66
2023/10/24 07:13:00;;;;;;;15.70;15.10;;;;;;;-141.02;100.00;41223.72;5113512;28;20226;-72
2023/10/24 07:15:27;;;;;;;15.40;14.80;;;;;;;-141.02;100.00;41219.91;5113326;28;20220;-69
2023/10/24 07:17:54;;;;;;;15.70;15.10;;;;;;;-141.02;100.00;41233.31;5113413;28;20221;-66
2023/10/24 07:20:21;;;;;;;16.83;16.13;;;;;;;-141.02;100.00;41312.00;5112841;28;20200;-66
2023/10/24 07:22:49;;;;;;;16.98;16.27;;;;;;;-141.02;100.00;41365.72;5112855;28;20280;-67
2023/10/24 07:25:16;;;;;;;17.05;16.35;;;;;;;-141.02;99.27;41392.59;5112746;28;20197;-66
2023/10/24 07:27:43;;;;;;;17.67;16.88;;;;;;;-141.02;97.74;41467.44;5113137;28;20197;-66
2023/10/24 07:30:11;;;;;;;17.45;16.75;;;;;;;-141.02;95.70;41519.25;5113027;28;20276;-69
2023/10/24 07:32:38;;;;;;;17.73;16.92;;;;;;;-141.02;93.81;41544.19;5112721;28;20257;-66
2023/10/24 07:35:05;;;;;;;18.10;17.30;;;;;;;-141.02;92.28;41626.72;5112664;28;20654;-66
2023/10/24 07:37:35;;;;;;;17.98;17.17;;;;;;;-141.02;92.01;41638.22;5113129;28;20189;-66
2023/10/24 07:40:04;;;;;;;17.58;16.77;;;;;;;-141.02;93.36;41680.44;5112878;28;20671;-66
2023/10/24 07:42:31;;;;;;;17.58;16.77;;;;;;;-141.02;91.73;41691.97;5112331;28;20279;-67
2023/10/24 07:44:58;;;;;;;16.55;15.85;;;;;;;-141.02;91.28;41699.63;5112967;28;20280;-67
2023/10/24 07:47:27;;;;;;;17.63;16.83;;;;;;;-141.02;91.30;41707.31;5112726;28;20215;-67
2023/10/24 07:49:54;;;;;;;17.55;16.75;;;;;;;-141.02;90.50;41757.22;5112490;28;20284;-67
2023/10/24 07:52:21;;;;;;;17.85;17.05;;;;;;;-141.02;89.88;41743.78;5112455;28;20200;-66
2023/10/24 07:54:48;;;;;;;17.27;16.58;;;;;;;-141.02;88.72;41766.81;5112664;28;20678;-67
2023/10/24 07:57:16;;;;;;;17.08;16.38;;;;;;;-141.02;88.70;41799.44;5112792;28;20193;-66
2023/10/24 07:59:46;;;;;;;17.88;17.08;;;;;;;-141.02;86.76;41845.50;5112521;28;20228;-67
2023/10/24 08:02:13;;;;;;;17.80;17.00;;;;;;;-141.02;85.59;41828.22;5112390;28;20209;-66
2023/10/24 08:04:40;;;;;;;16.45;15.75;;;;;;;-141.02;85.79;41883.88;5112515;28;20199;-66
2023/10/24 08:07:07;;;;;;;17.23;16.42;;;;;;;-141.02;86.12;41905.00;5112245;28;20190;-67
2023/10/24 08:09:34;;;;;;;17.25;16.45;;;;;;;-141.02;83.45;41895.38;5112687;28;20284;-67
2023/10/24 08:12:01;;;;;;;18.17;17.38;;;;;;;-141.02;83.28;41929.94;5112378;28;20197;-67
2023/10/24 08:14:29;;;;;;;18.00;17.20;;;;;;;-141.02;82.36;41979.84;5112613;28;20200;-67
2023/10/24 08:16:58;;;;;;;18.05;17.25;;;;;;;-141.02;82.46;41999.03;5112412;28;20660;-66
2023/10/24 08:19:23;;;;;;;18.20;17.40;;;;;;;-141.02;81.12;41989.44;5112451;28;20240;-66
2023/10/24 08:21:50;;;;;;;18.40;17.60;;;;;;;-141.02;81.84;42068.13;5112548;28;20197;-67
2023/10/24 08:24:17;;;;;;;18.33;17.52;;;;;;;-141.02;79.98;42068.13;5112091;28;20203;-68
2023/10/24 08:26:44;;;;;;;18.27;17.48;;;;;;;-141.02;79.70;42070.03;5112409;28;20199;-66
2023/10/24 08:29:11;;;;;;;18.35;17.50;;;;;;;-141.02;77.59;42083.47;5112009;28;20189;-66
2023/10/24 08:31:39;;;;;;;18.50;17.70;;;;;;;-141.02;78.46;42119.94;5112477;28;20189;-66
2023/10/24 08:34:06;;;;;;;20.42;19.48;;;;;;;-141.02;79.79;42133.38;5112635;28;20356;-68
2023/10/24 08:36:33;;;;;;;18.27;17.48;;;;;;;-141.02;77.47;42160.25;5112091;28;20235;-66
2023/10/24 08:39:00;;;;;;;18.60;17.80;;;;;;;-141.02;74.72;42215.91;5112296;28;20229;-67
2023/10/24 08:41:28;;;;;;;18.67;17.77;;;;;;;-141.02;72.08;42238.94;5111935;28;20306;-69
2023/10/24 08:43:56;;;;;;;18.60;17.70;;;;;;;-141.02;72.51;42283.09;5112302;28;20276;-67
2023/10/24 08:46:24;;;;;;;18.52;17.65;;;;;;;-141.02;70.30;42309.97;5111923;28;20701;-67
2023/10/24 08:48:53;;;;;;;17.80;17.00;;;;;;;-141.02;68.98;42333.00;5112304;28;20250;-67
2023/10/24 08:51:20;;;;;;;18.15;17.35;;;;;;;-141.02;68.51;42367.56;5112181;28;20280;-67
2023/10/24 08:53:47;;;;;;;18.25;17.35;;;;;;;-141.02;67.06;42400.19;5113911;28;20200;-67
2023/10/24 08:56:14;;;;;;;18.17;17.27;;;;;;;-141.02;67.64;42409.78;5115905;28;20193;-67
2023/10/24 08:58:45;;;;;;;17.80;17.00;;;;;;;-141.02;67.67;42417.47;5115599;28;20233;-67
2023/10/24 09:01:13;;;;;;;17.75;16.95;;;;;;;-141.02;67.22;42463.53;5115867;28;20200;-69
2023/10/24 09:03:41;;;;;;;18.08;17.17;;;;;;;-141.02;67.20;42425.13;5115505;28;20231;-69
2023/10/24 09:06:09;;;;;;;18.85;17.95;;;;;;;-141.02;66.75;42480.81;5115710;28;20201;-77
2023/10/24 09:08:36;;;;;;;18.48;17.58;;;;;;;-141.02;66.31;42513.44;5115728;28;20633;-74
2023/10/24 09:11:03;;;;;;;18.27;17.38;;;;;;;-141.02;64.48;42509.59;5116229;28;20279;-68
2023/10/24 09:13:33;;;;;;;18.40;17.50;;;;;;;-141.02;65.05;42528.78;5115694;28;20278;-66
2023/10/24 09:16:08;;;;;;;28.45;26.65;;;;;;;-141.02;64.64;42532.63;5115852;28;20578;-66
2023/10/24 09:18:36;;;;;;;18.38;17.48;;;;;;;-141.02;64.00;42551.81;5115207;28;20231;-68
2023/10/24 09:21:05;;;;;;;18.45;17.55;;;;;;;-141.02;64.22;42551.81;5115108;28;20193;-67
2023/10/24 09:23:35;;;;;;;18.50;17.60;;;;;;;-141.02;63.40;42555.66;5115425;28;20193;-66
2023/10/24 09:26:03;;;;;;;18.65;17.77;;;;;;;-141.02;63.00;42620.94;5116361;28;20185;-66
2023/10/24 09:28:31;;;;;;;18.30;17.40;;;;;;;-141.02;62.10;42645.88;5115101;28;20580;-66
2023/10/24 09:30:58;;;;;;;18.50;17.60;;;;;;;-141.02;61.17;42670.84;5115383;28;20281;-66
2023/10/24 09:33:27;;;;;;;17.98;17.08;;;;;;;-141.02;60.77;42682.34;5114900;28;20275;-67
2023/10/24 09:35:54;;;;;;;19.05;18.15;;;;;;;-141.02;61.01;42720.75;5114876;28;20197;-66
2023/10/24 09:38:22;;;;;;;18.23;17.42;;;;;;;-141.02;62.04;42747.63;5115036;28;20193;-66
2023/10/24 09:40:52;;;;;;;18.02;17.23;;;;;;;-141.02;61.62;42784.09;5114800;28;20199;-68
2023/10/24 09:43:22;;;;;;;18.25;17.38;;;;;;;-141.02;60.79;42797.53;5114704;28;20574;-67
2023/10/24 09:45:51;;;;;;;17.98;17.08;;;;;;;-141.02;60.13;42824.41;5115372;28;20192;-66
2023/10/24 09:48:18;;;;;;;17.63;16.83;;;;;;;-141.02;60.56;42837.84;5114894;28;20285;-67
2023/10/24 09:50:45;;;;;;;17.58;16.77;;;;;;;-141.02;60.56;42855.13;5114598;28;20201;-66
2023/10/24 09:53:13;;;;;;;17.55;16.75;;;;;;;-141.02;60.41;42858.97;5114623;28;20735;-66
2023/10/24 09:55:41;;;;;;;17.35;16.55;;;;;;;-141.02;59.51;42872.41;5114995;28;20236;-66
2023/10/24 09:58:11;;;;;;;18.10;17.20;;;;;;;-141.02;59.48;42889.69;5114347;28;20717;-66
2023/10/24 10:00:38;;;;;;;18.05;17.15;;;;;;;-141.02;59.98;42906.97;5114674;28;20220;-66
2023/10/24 10:03:05;;;;;;;17.50;16.70;;;;;;;-141.02;60.04;42897.38;5114419;28;20288;-66
2023/10/24 10:05:33;;;;;;;17.70;16.88;;;;;;;-141.02;60.28;42916.56;5114283;28;20225;-66
2023/10/24 10:08:02;;;;;;;18.05;17.17;;;;;;;-141.02;59.22;42958.81;5114549;28;20193;-67
2023/10/24 10:10:31;;;;;;;17.60;16.80;;;;;;;-141.02;57.55;42995.28;5114593;28;20292;-66
2023/10/24 10:13:02;;;;;;;18.23;17.33;;;;;;;-141.02;56.57;43006.81;5114142;28;20204;-67
2023/10/24 10:15:56;;;;;;;18.58;17.60;;;;;;;-141.02;57.07;43041.34;5114227;27;20663;-66
2023/10/24 10:18:42;;;;;;;18.60;17.70;;;;;;;-141.02;57.60;43050.97;5107398;27;20284;-67
2023/10/24 10:21:22;;;;;;;17.75;16.85;;;;;;;-141.02;58.23;43035.59;5114341;28;20184;-67
2023/10/24 10:24:25;;;;;;;17.95;17.05;;;;;;;-141.02;58.61;43043.28;5114294;28;20185;-66
2023/10/24 10:27:02;;;;;;;18.05;17.15;;;;;;;-141.02;59.22;43054.78;5111751;28;20617;-66
2023/10/24 10:29:41;;;;;;;17.75;16.85;;;;;;;-141.02;58.86;43029.84;5114216;28;20181;-66
2023/10/24 10:32:23;;;;;;;17.58;16.67;;;;;;;-141.02;59.22;43047.13;5113810;28;20600;-66
2023/10/24 10:34:52;;;;;;;17.80;16.90;;;;;;;-141.02;59.30;43045.19;5114034;28;20189;-66
2023/10/24 10:37:18;;;;;;;16.67;15.88;;;;;;;-141.02;59.26;43039.44;5113946;28;20193;-67
2023/10/24 10:40:18;;;;;;;17.52;16.63;;;;;;;-141.02;59.74;43058.63;5113585;28;20722;-67
2023/10/24 10:42:49;;;;;;;17.65;16.75;;;;;;;-141.02;60.01;43062.47;5113502;28;20193;-66
2023/10/24 10:45:27;;;;;;;17.83;16.92;;;;;;;-141.02;59.18;43118.16;5113898;28;20246;-66
2023/10/24 10:47:57;;;;;;;17.60;16.70;;;;;;;-141.02;58.50;43145.03;5113523;28;20199;-67
2023/10/24 10:50:25;;;;;;;17.75;16.85;;;;;;;-141.02;57.51;43127.75;5113733;28;20242;-67
2023/10/24 10:53:11;;;;;;;18.10;17.20;;;;;;;-141.02;57.08;43139.28;5113636;28;20204;-68
2023/10/24 10:56:04;;;;;;;18.05;17.15;;;;;;;-141.02;57.27;43139.28;5113750;28;20717;-68
2023/10/24 10:58:38;;;;;;;17.90;17.00;;;;;;;-141.02;57.26;43127.75;5113114;28;20239;-67
2023/10/24 11:01:14;;;;;;;17.77;16.88;;;;;;;-141.02;58.83;43062.47;5113645;28;20272;-66
2023/10/24 11:04:00;;;;;;;17.88;17.00;;;;;;;-141.02;58.86;43087.44;5079199;28;20201;-67
2023/10/24 11:06:29;;;;;;;17.70;16.80;;;;;;;-141.02;58.98;43127.75;5113469;28;20186;-67